sensor_id;sensor_type;location;lat;lon;timestamp;temperature;humidity
28087;DHT22;15392;48.912;8.380;2023-04-03T00:01:36;12.80;45.70
28087;DHT22;15392;48.912;8.380;2023-04-03T00:04:04;12.80;45.70
28087;DHT22;15392;48.912;8.380;2023-04-03T00:06:31;12.80;45.70
28087;DHT22;15392;48.912;8.380;2023-04-03T00:08:57;12.70;45.70
28087;DHT22;15392;48.912;8.380;2023-04-03T00:11:23;12.80;45.80
28087;DHT22;15392;48.912;8.380;2023-04-03T00:13:49;12.70;45.70
28087;DHT22;15392;48.912;8.380;2023-04-03T00:16:15;12.70;45.60
28087;DHT22;15392;48.912;8.380;2023-04-03T00:18:41;12.70;45.60
28087;DHT22;15392;48.912;8.380;2023-04-03T00:21:07;12.70;45.60
28087;DHT22;15392;48.912;8.380;2023-04-03T00:23:35;12.70;45.60
28087;DHT22;15392;48.912;8.380;2023-04-03T00:26:01;12.70;45.60
28087;DHT22;15392;48.912;8.380;2023-04-03T00:28:27;12.70;45.60
28087;DHT22;15392;48.912;8.380;2023-04-03T00:30:52;12.70;45.60
28087;DHT22;15392;48.912;8.380;2023-04-03T00:33:18;12.70;45.60
28087;DHT22;15392;48.912;8.380;2023-04-03T00:35:47;12.70;45.60
28087;DHT22;15392;48.912;8.380;2023-04-03T00:38:14;12.70;45.50
28087;DHT22;15392;48.912;8.380;2023-04-03T00:40:43;12.60;45.50
28087;DHT22;15392;48.912;8.380;2023-04-03T00:43:14;12.60;45.40
28087;DHT22;15392;48.912;8.380;2023-04-03T00:45:45;12.60;45.40
28087;DHT22;15392;48.912;8.380;2023-04-03T00:48:16;12.60;45.40
28087;DHT22;15392;48.912;8.380;2023-04-03T00:50:44;12.60;45.40
28087;DHT22;15392;48.912;8.380;2023-04-03T00:53:14;12.60;45.50
28087;DHT22;15392;48.912;8.380;2023-04-03T00:55:43;12.50;45.40
28087;DHT22;15392;48.912;8.380;2023-04-03T00:58:10;12.50;45.50
28087;DHT22;15392;48.912;8.380;2023-04-03T01:00:40;12.50;45.50
28087;DHT22;15392;48.912;8.380;2023-04-03T01:03:08;12.50;45.40
28087;DHT22;15392;48.912;8.380;2023-04-03T01:05:33;12.50;45.50
28087;DHT22;15392;48.912;8.380;2023-04-03T01:07:59;12.50;45.50
28087;DHT22;15392;48.912;8.380;2023-04-03T01:10:26;12.50;45.50
28087;DHT22;15392;48.912;8.380;2023-04-03T01:12:52;12.40;45.50
28087;DHT22;15392;48.912;8.380;2023-04-03T01:15:24;12.40;45.50
28087;DHT22;15392;48.912;8.380;2023-04-03T01:18:00;12.40;45.40
28087;DHT22;15392;48.912;8.380;2023-04-03T01:28:15;12.40;45.40
28087;DHT22;15392;48.912;8.380;2023-04-03T01:30:47;12.40;45.60
28087;DHT22;15392;48.912;8.380;2023-04-03T01:33:16;12.30;45.40
28087;DHT22;15392;48.912;8.380;2023-04-03T01:35:42;12.30;45.70
28087;DHT22;15392;48.912;8.380;2023-04-03T01:38:07;12.30;45.60
28087;DHT22;15392;48.912;8.380;2023-04-03T01:40:33;12.30;45.60
28087;DHT22;15392;48.912;8.380;2023-04-03T01:42:59;12.30;45.60
28087;DHT22;15392;48.912;8.380;2023-04-03T01:45:25;12.30;45.60
28087;DHT22;15392;48.912;8.380;2023-04-03T01:47:50;12.30;45.60
28087;DHT22;15392;48.912;8.380;2023-04-03T01:50:16;12.30;45.60
28087;DHT22;15392;48.912;8.380;2023-04-03T01:52:42;12.30;45.60
28087;DHT22;15392;48.912;8.380;2023-04-03T01:55:08;12.30;45.60
28087;DHT22;15392;48.912;8.380;2023-04-03T01:57:34;12.30;45.60
28087;DHT22;15392;48.912;8.380;2023-04-03T01:59:59;12.30;45.70
28087;DHT22;15392;48.912;8.380;2023-04-03T02:02:25;12.30;45.70
28087;DHT22;15392;48.912;8.380;2023-04-03T02:04:51;12.30;45.80
28087;DHT22;15392;48.912;8.380;2023-04-03T02:07:16;12.30;45.80
28087;DHT22;15392;48.912;8.380;2023-04-03T02:09:42;12.30;45.80
28087;DHT22;15392;48.912;8.380;2023-04-03T02:12:08;12.30;45.80
28087;DHT22;15392;48.912;8.380;2023-04-03T02:14:33;12.30;45.80
28087;DHT22;15392;48.912;8.380;2023-04-03T02:17:01;12.30;45.80
28087;DHT22;15392;48.912;8.380;2023-04-03T02:19:30;12.30;45.80
28087;DHT22;15392;48.912;8.380;2023-04-03T02:21:56;12.30;45.90
28087;DHT22;15392;48.912;8.380;2023-04-03T02:24:22;12.30;45.80
28087;DHT22;15392;48.912;8.380;2023-04-03T02:26:47;12.30;45.80
28087;DHT22;15392;48.912;8.380;2023-04-03T02:29:13;12.30;45.80
28087;DHT22;15392;48.912;8.380;2023-04-03T02:31:39;12.30;45.80
28087;DHT22;15392;48.912;8.380;2023-04-03T02:34:05;12.30;45.80
28087;DHT22;15392;48.912;8.380;2023-04-03T02:36:31;12.30;45.80
28087;DHT22;15392;48.912;8.380;2023-04-03T02:38:56;12.30;45.80
28087;DHT22;15392;48.912;8.380;2023-04-03T02:41:22;12.30;45.80
28087;DHT22;15392;48.912;8.380;2023-04-03T02:43:48;12.30;45.80
28087;DHT22;15392;48.912;8.380;2023-04-03T02:46:14;12.30;45.80
28087;DHT22;15392;48.912;8.380;2023-04-03T02:48:40;12.20;45.70
28087;DHT22;15392;48.912;8.380;2023-04-03T02:51:06;12.20;45.70
28087;DHT22;15392;48.912;8.380;2023-04-03T02:53:32;12.20;45.70
28087;DHT22;15392;48.912;8.380;2023-04-03T02:55:58;12.20;45.60
28087;DHT22;15392;48.912;8.380;2023-04-03T02:58:23;12.20;45.60
28087;DHT22;15392;48.912;8.380;2023-04-03T03:00:49;12.20;45.60
28087;DHT22;15392;48.912;8.380;2023-04-03T03:03:15;12.20;45.60
28087;DHT22;15392;48.912;8.380;2023-04-03T03:05:41;12.20;45.60
28087;DHT22;15392;48.912;8.380;2023-04-03T03:08:06;12.20;45.60
28087;DHT22;15392;48.912;8.380;2023-04-03T03:10:32;12.10;45.70
28087;DHT22;15392;48.912;8.380;2023-04-03T03:12:58;12.10;45.80
28087;DHT22;15392;48.912;8.380;2023-04-03T03:15:23;12.10;45.80
28087;DHT22;15392;48.912;8.380;2023-04-03T03:17:49;12.10;45.80
28087;DHT22;15392;48.912;8.380;2023-04-03T03:20:15;12.00;45.80
28087;DHT22;15392;48.912;8.380;2023-04-03T03:22:41;12.00;45.90
28087;DHT22;15392;48.912;8.380;2023-04-03T03:25:07;12.00;45.90
28087;DHT22;15392;48.912;8.380;2023-04-03T03:27:33;12.00;45.80
28087;DHT22;15392;48.912;8.380;2023-04-03T03:29:59;12.00;45.90
28087;DHT22;15392;48.912;8.380;2023-04-03T03:32:25;11.90;45.90
28087;DHT22;15392;48.912;8.380;2023-04-03T03:34:50;11.90;45.90
28087;DHT22;15392;48.912;8.380;2023-04-03T03:37:16;11.90;45.90
28087;DHT22;15392;48.912;8.380;2023-04-03T03:39:42;11.90;45.80
28087;DHT22;15392;48.912;8.380;2023-04-03T03:42:08;11.80;45.80
28087;DHT22;15392;48.912;8.380;2023-04-03T03:44:33;11.80;45.90
28087;DHT22;15392;48.912;8.380;2023-04-03T03:46:59;11.70;45.90
28087;DHT22;15392;48.912;8.380;2023-04-03T03:49:25;11.70;45.80
28087;DHT22;15392;48.912;8.380;2023-04-03T03:51:51;11.70;45.80
28087;DHT22;15392;48.912;8.380;2023-04-03T03:54:17;11.60;45.80
28087;DHT22;15392;48.912;8.380;2023-04-03T03:56:42;11.50;45.80
28087;DHT22;15392;48.912;8.380;2023-04-03T03:59:08;11.40;45.80
28087;DHT22;15392;48.912;8.380;2023-04-03T04:01:36;11.40;46.00
28087;DHT22;15392;48.912;8.380;2023-04-03T04:04:01;11.30;46.00
28087;DHT22;15392;48.912;8.380;2023-04-03T04:06:27;11.30;45.90
28087;DHT22;15392;48.912;8.380;2023-04-03T04:08:53;11.20;45.90
28087;DHT22;15392;48.912;8.380;2023-04-03T04:11:19;11.20;46.10
28087;DHT22;15392;48.912;8.380;2023-04-03T04:13:45;11.10;46.20
28087;DHT22;15392;48.912;8.380;2023-04-03T04:16:11;11.10;46.20
28087;DHT22;15392;48.912;8.380;2023-04-03T04:18:37;11.10;46.40
28087;DHT22;15392;48.912;8.380;2023-04-03T04:21:03;11.00;46.40
28087;DHT22;15392;48.912;8.380;2023-04-03T04:23:28;11.00;46.40
28087;DHT22;15392;48.912;8.380;2023-04-03T04:25:54;11.00;47.00
28087;DHT22;15392;48.912;8.380;2023-04-03T04:28:20;11.00;46.40
28087;DHT22;15392;48.912;8.380;2023-04-03T04:30:46;10.90;46.50
28087;DHT22;15392;48.912;8.380;2023-04-03T04:33:11;10.90;46.50
28087;DHT22;15392;48.912;8.380;2023-04-03T04:35:39;10.90;46.30
28087;DHT22;15392;48.912;8.380;2023-04-03T04:38:06;10.80;46.30
28087;DHT22;15392;48.912;8.380;2023-04-03T04:40:34;10.80;46.40
28087;DHT22;15392;48.912;8.380;2023-04-03T04:43:00;10.80;46.50
28087;DHT22;15392;48.912;8.380;2023-04-03T04:45:25;10.70;46.50
28087;DHT22;15392;48.912;8.380;2023-04-03T04:47:51;10.70;46.60
28087;DHT22;15392;48.912;8.380;2023-04-03T04:50:18;10.70;46.50
28087;DHT22;15392;48.912;8.380;2023-04-03T04:52:44;10.60;46.50
28087;DHT22;15392;48.912;8.380;2023-04-03T04:55:09;10.60;46.60
28087;DHT22;15392;48.912;8.380;2023-04-03T04:57:35;10.60;46.70
28087;DHT22;15392;48.912;8.380;2023-04-03T05:00:03;10.60;46.70
28087;DHT22;15392;48.912;8.380;2023-04-03T05:02:29;10.60;46.90
28087;DHT22;15392;48.912;8.380;2023-04-03T05:04:54;10.60;46.90
28087;DHT22;15392;48.912;8.380;2023-04-03T05:07:20;10.60;46.90
28087;DHT22;15392;48.912;8.380;2023-04-03T05:09:46;10.60;47.00
28087;DHT22;15392;48.912;8.380;2023-04-03T05:12:11;10.60;46.90
28087;DHT22;15392;48.912;8.380;2023-04-03T05:14:37;10.60;46.90
28087;DHT22;15392;48.912;8.380;2023-04-03T05:17:03;10.70;47.00
28087;DHT22;15392;48.912;8.380;2023-04-03T05:19:29;10.70;47.10
28087;DHT22;15392;48.912;8.380;2023-04-03T05:21:54;10.70;47.10
28087;DHT22;15392;48.912;8.380;2023-04-03T05:24:20;10.70;47.10
28087;DHT22;15392;48.912;8.380;2023-04-03T05:26:46;10.70;47.10
28087;DHT22;15392;48.912;8.380;2023-04-03T05:29:12;10.70;47.00
28087;DHT22;15392;48.912;8.380;2023-04-03T05:31:38;10.80;47.10
28087;DHT22;15392;48.912;8.380;2023-04-03T05:34:03;10.80;47.10
28087;DHT22;15392;48.912;8.380;2023-04-03T05:36:29;10.80;47.00
28087;DHT22;15392;48.912;8.380;2023-04-03T05:38:55;10.80;46.90
28087;DHT22;15392;48.912;8.380;2023-04-03T05:41:22;10.80;46.70
28087;DHT22;15392;48.912;8.380;2023-04-03T05:43:48;10.80;46.60
28087;DHT22;15392;48.912;8.380;2023-04-03T05:46:18;10.80;46.50
28087;DHT22;15392;48.912;8.380;2023-04-03T05:48:45;10.80;46.40
28087;DHT22;15392;48.912;8.380;2023-04-03T05:51:33;10.90;46.40
28087;DHT22;15392;48.912;8.380;2023-04-03T05:54:08;10.90;46.00
28087;DHT22;15392;48.912;8.380;2023-04-03T05:56:36;10.90;46.10
28087;DHT22;15392;48.912;8.380;2023-04-03T05:59:02;10.90;46.10
28087;DHT22;15392;48.912;8.380;2023-04-03T06:01:27;10.90;46.00
28087;DHT22;15392;48.912;8.380;2023-04-03T06:03:53;10.90;46.40
28087;DHT22;15392;48.912;8.380;2023-04-03T06:06:19;10.90;45.90
28087;DHT22;15392;48.912;8.380;2023-04-03T06:08:45;10.90;45.90
28087;DHT22;15392;48.912;8.380;2023-04-03T06:11:11;10.90;45.80
28087;DHT22;15392;48.912;8.380;2023-04-03T06:13:37;10.80;45.80
28087;DHT22;15392;48.912;8.380;2023-04-03T06:16:04;10.90;45.90
28087;DHT22;15392;48.912;8.380;2023-04-03T06:18:30;10.80;45.90
28087;DHT22;15392;48.912;8.380;2023-04-03T06:20:57;10.80;45.90
28087;DHT22;15392;48.912;8.380;2023-04-03T06:23:23;10.80;45.90
28087;DHT22;15392;48.912;8.380;2023-04-03T06:25:49;10.80;45.90
28087;DHT22;15392;48.912;8.380;2023-04-03T06:28:15;10.90;45.90
28087;DHT22;15392;48.912;8.380;2023-04-03T06:30:41;10.90;45.90
28087;DHT22;15392;48.912;8.380;2023-04-03T06:33:06;10.90;45.90
28087;DHT22;15392;48.912;8.380;2023-04-03T06:35:32;10.90;45.80
28087;DHT22;15392;48.912;8.380;2023-04-03T06:38:00;10.90;45.70
28087;DHT22;15392;48.912;8.380;2023-04-03T06:40:26;10.90;45.80
28087;DHT22;15392;48.912;8.380;2023-04-03T06:42:52;10.90;45.70
28087;DHT22;15392;48.912;8.380;2023-04-03T06:45:17;10.90;45.70
28087;DHT22;15392;48.912;8.380;2023-04-03T06:47:43;10.90;45.80
28087;DHT22;15392;48.912;8.380;2023-04-03T06:50:11;10.90;45.90
28087;DHT22;15392;48.912;8.380;2023-04-03T06:52:39;11.00;45.80
28087;DHT22;15392;48.912;8.380;2023-04-03T06:55:06;11.00;45.80
28087;DHT22;15392;48.912;8.380;2023-04-03T06:57:32;11.10;45.80
28087;DHT22;15392;48.912;8.380;2023-04-03T06:59:58;11.00;45.60
28087;DHT22;15392;48.912;8.380;2023-04-03T07:02:24;11.10;45.70
28087;DHT22;15392;48.912;8.380;2023-04-03T07:04:49;11.10;45.80
28087;DHT22;15392;48.912;8.380;2023-04-03T07:07:15;11.10;45.80
28087;DHT22;15392;48.912;8.380;2023-04-03T07:09:42;11.10;45.90
28087;DHT22;15392;48.912;8.380;2023-04-03T07:12:08;11.20;46.10
28087;DHT22;15392;48.912;8.380;2023-04-03T07:14:34;11.20;46.00
28087;DHT22;15392;48.912;8.380;2023-04-03T07:17:00;11.20;46.00
28087;DHT22;15392;48.912;8.380;2023-04-03T07:19:26;11.20;45.90
28087;DHT22;15392;48.912;8.380;2023-04-03T07:21:53;11.30;46.00
28087;DHT22;15392;48.912;8.380;2023-04-03T07:24:19;11.30;45.90
28087;DHT22;15392;48.912;8.380;2023-04-03T07:26:49;11.40;46.50
28087;DHT22;15392;48.912;8.380;2023-04-03T07:29:16;11.40;45.80
28087;DHT22;15392;48.912;8.380;2023-04-03T07:31:42;11.40;45.80
28087;DHT22;15392;48.912;8.380;2023-04-03T07:34:08;11.40;45.90
28087;DHT22;15392;48.912;8.380;2023-04-03T07:36:34;11.40;45.80
28087;DHT22;15392;48.912;8.380;2023-04-03T07:39:01;11.40;45.80
28087;DHT22;15392;48.912;8.380;2023-04-03T07:41:27;11.40;45.80
28087;DHT22;15392;48.912;8.380;2023-04-03T07:43:54;11.50;45.90
28087;DHT22;15392;48.912;8.380;2023-04-03T07:46:22;11.40;45.80
28087;DHT22;15392;48.912;8.380;2023-04-03T07:48:48;11.40;45.80
28087;DHT22;15392;48.912;8.380;2023-04-03T07:51:14;11.50;45.90
28087;DHT22;15392;48.912;8.380;2023-04-03T07:53:40;11.50;45.90
28087;DHT22;15392;48.912;8.380;2023-04-03T07:56:06;11.50;45.90
28087;DHT22;15392;48.912;8.380;2023-04-03T07:58:32;11.50;46.00
28087;DHT22;15392;48.912;8.380;2023-04-03T08:00:59;11.50;46.00
28087;DHT22;15392;48.912;8.380;2023-04-03T08:03:25;11.50;46.00
28087;DHT22;15392;48.912;8.380;2023-04-03T08:05:51;11.60;46.10
28087;DHT22;15392;48.912;8.380;2023-04-03T08:08:23;11.60;46.10
28087;DHT22;15392;48.912;8.380;2023-04-03T08:10:53;11.60;46.00
28087;DHT22;15392;48.912;8.380;2023-04-03T08:13:21;11.70;46.10
28087;DHT22;15392;48.912;8.380;2023-04-03T08:15:47;11.80;46.10
28087;DHT22;15392;48.912;8.380;2023-04-03T08:18:14;11.80;46.30
28087;DHT22;15392;48.912;8.380;2023-04-03T08:20:40;11.90;46.10
28087;DHT22;15392;48.912;8.380;2023-04-03T08:23:07;11.90;46.10
28087;DHT22;15392;48.912;8.380;2023-04-03T08:25:37;11.90;46.00
28087;DHT22;15392;48.912;8.380;2023-04-03T08:28:04;12.00;46.00
28087;DHT22;15392;48.912;8.380;2023-04-03T08:30:29;12.00;46.00
28087;DHT22;15392;48.912;8.380;2023-04-03T08:32:56;12.10;46.00
28087;DHT22;15392;48.912;8.380;2023-04-03T08:35:22;12.10;45.90
28087;DHT22;15392;48.912;8.380;2023-04-03T08:37:47;12.20;46.00
28087;DHT22;15392;48.912;8.380;2023-04-03T08:40:15;12.30;46.00
28087;DHT22;15392;48.912;8.380;2023-04-03T08:48:17;12.40;45.70
28087;DHT22;15392;48.912;8.380;2023-04-03T08:50:51;12.50;45.80
28087;DHT22;15392;48.912;8.380;2023-04-03T08:53:25;12.50;45.80
28087;DHT22;15392;48.912;8.380;2023-04-03T08:55:54;12.60;45.70
28087;DHT22;15392;48.912;8.380;2023-04-03T08:58:29;12.70;45.80
28087;DHT22;15392;48.912;8.380;2023-04-03T09:01:00;12.70;45.70
28087;DHT22;15392;48.912;8.380;2023-04-03T09:03:41;12.80;45.90
28087;DHT22;15392;48.912;8.380;2023-04-03T09:06:13;12.80;45.50
28087;DHT22;15392;48.912;8.380;2023-04-03T09:11:56;12.90;45.50
28087;DHT22;15392;48.912;8.380;2023-04-03T09:14:43;13.00;45.40
28087;DHT22;15392;48.912;8.380;2023-04-03T09:17:22;13.00;45.70
28087;DHT22;15392;48.912;8.380;2023-04-03T09:20:43;13.10;45.70
28087;DHT22;15392;48.912;8.380;2023-04-03T09:26:23;13.20;45.30
28087;DHT22;15392;48.912;8.380;2023-04-03T09:28:58;13.20;45.10
28087;DHT22;15392;48.912;8.380;2023-04-03T09:31:42;13.20;45.10
28087;DHT22;15392;48.912;8.380;2023-04-03T09:34:24;13.30;44.70
28087;DHT22;15392;48.912;8.380;2023-04-03T09:36:55;13.30;44.60
28087;DHT22;15392;48.912;8.380;2023-04-03T09:39:26;13.20;44.80
28087;DHT22;15392;48.912;8.380;2023-04-03T09:42:05;13.30;44.70
28087;DHT22;15392;48.912;8.380;2023-04-03T09:44:38;13.20;44.30
28087;DHT22;15392;48.912;8.380;2023-04-03T09:47:30;13.20;44.60
28087;DHT22;15392;48.912;8.380;2023-04-03T09:52:44;13.20;44.10
28087;DHT22;15392;48.912;8.380;2023-04-03T09:55:17;13.20;44.20
28087;DHT22;15392;48.912;8.380;2023-04-03T09:57:46;13.10;44.10
28087;DHT22;15392;48.912;8.380;2023-04-03T10:00:37;13.20;44.20
28087;DHT22;15392;48.912;8.380;2023-04-03T10:03:05;13.10;43.70
28087;DHT22;15392;48.912;8.380;2023-04-03T10:05:32;13.10;44.30
28087;DHT22;15392;48.912;8.380;2023-04-03T10:13:54;13.00;43.80
28087;DHT22;15392;48.912;8.380;2023-04-03T10:16:29;13.10;44.20
28087;DHT22;15392;48.912;8.380;2023-04-03T10:19:23;13.10;44.30
28087;DHT22;15392;48.912;8.380;2023-04-03T10:22:18;13.10;43.90
28087;DHT22;15392;48.912;8.380;2023-04-03T10:25:14;13.10;44.10
28087;DHT22;15392;48.912;8.380;2023-04-03T10:28:01;13.10;44.10
28087;DHT22;15392;48.912;8.380;2023-04-03T10:30:37;13.10;44.60
28087;DHT22;15392;48.912;8.380;2023-04-03T10:45:53;13.20;44.00
28087;DHT22;15392;48.912;8.380;2023-04-03T10:54:05;13.30;44.10
28087;DHT22;15392;48.912;8.380;2023-04-03T10:56:44;13.30;43.80
28087;DHT22;15392;48.912;8.380;2023-04-03T10:59:48;13.30;44.50
28087;DHT22;15392;48.912;8.380;2023-04-03T11:02:25;13.40;43.40
28087;DHT22;15392;48.912;8.380;2023-04-03T11:05:30;13.40;44.00
28087;DHT22;15392;48.912;8.380;2023-04-03T11:11:06;13.50;44.00
28087;DHT22;15392;48.912;8.380;2023-04-03T11:23:01;13.60;43.90
28087;DHT22;15392;48.912;8.380;2023-04-03T11:25:32;13.70;42.90
28087;DHT22;15392;48.912;8.380;2023-04-03T11:28:02;13.70;43.60
28087;DHT22;15392;48.912;8.380;2023-04-03T11:30:44;13.80;43.60
28087;DHT22;15392;48.912;8.380;2023-04-03T11:33:32;13.70;42.90
28087;DHT22;15392;48.912;8.380;2023-04-03T11:38:46;13.80;43.10
28087;DHT22;15392;48.912;8.380;2023-04-03T11:41:13;13.80;43.20
28087;DHT22;15392;48.912;8.380;2023-04-03T11:43:54;13.80;42.60
28087;DHT22;15392;48.912;8.380;2023-04-03T11:46:22;13.80;42.90
28087;DHT22;15392;48.912;8.380;2023-04-03T11:48:52;13.80;42.90
28087;DHT22;15392;48.912;8.380;2023-04-03T11:53:52;13.80;42.70
28087;DHT22;15392;48.912;8.380;2023-04-03T12:01:53;13.80;42.60
28087;DHT22;15392;48.912;8.380;2023-04-03T12:04:25;13.80;42.60
28087;DHT22;15392;48.912;8.380;2023-04-03T12:07:13;13.80;43.00
28087;DHT22;15392;48.912;8.380;2023-04-03T12:12:38;13.80;43.00
28087;DHT22;15392;48.912;8.380;2023-04-03T12:15:26;13.80;42.20
28087;DHT22;15392;48.912;8.380;2023-04-03T12:21:13;13.80;42.20
28087;DHT22;15392;48.912;8.380;2023-04-03T12:24:04;13.80;42.90
28087;DHT22;15392;48.912;8.380;2023-04-03T12:27:21;13.80;42.30
28087;DHT22;15392;48.912;8.380;2023-04-03T12:40:45;13.70;42.80
28087;DHT22;15392;48.912;8.380;2023-04-03T12:43:28;13.70;42.70
28087;DHT22;15392;48.912;8.380;2023-04-03T12:48:56;13.70;42.50
28087;DHT22;15392;48.912;8.380;2023-04-03T12:51:44;13.70;42.10
28087;DHT22;15392;48.912;8.380;2023-04-03T12:54:23;13.60;42.10
28087;DHT22;15392;48.912;8.380;2023-04-03T12:59:45;13.60;42.20
28087;DHT22;15392;48.912;8.380;2023-04-03T13:02:27;13.60;42.80
28087;DHT22;15392;48.912;8.380;2023-04-03T13:05:08;13.60;42.30
28087;DHT22;15392;48.912;8.380;2023-04-03T13:07:37;13.60;42.60
28087;DHT22;15392;48.912;8.380;2023-04-03T13:12:34;13.60;42.60
28087;DHT22;15392;48.912;8.380;2023-04-03T13:15:12;13.60;42.70
28087;DHT22;15392;48.912;8.380;2023-04-03T13:17:42;13.60;42.70
28087;DHT22;15392;48.912;8.380;2023-04-03T13:20:30;13.60;42.70
28087;DHT22;15392;48.912;8.380;2023-04-03T13:23:04;13.70;42.00
28087;DHT22;15392;48.912;8.380;2023-04-03T13:25:33;13.60;42.60
28087;DHT22;15392;48.912;8.380;2023-04-03T13:28:05;13.70;42.60
28087;DHT22;15392;48.912;8.380;2023-04-03T13:30:34;13.60;42.20
28087;DHT22;15392;48.912;8.380;2023-04-03T13:33:04;13.60;42.40
28087;DHT22;15392;48.912;8.380;2023-04-03T13:35:43;13.60;42.30
28087;DHT22;15392;48.912;8.380;2023-04-03T13:41:21;13.60;42.00
28087;DHT22;15392;48.912;8.380;2023-04-03T13:43:51;13.60;41.60
28087;DHT22;15392;48.912;8.380;2023-04-03T13:48:46;13.60;42.50
28087;DHT22;15392;48.912;8.380;2023-04-03T13:53:57;13.60;42.40
28087;DHT22;15392;48.912;8.380;2023-04-03T14:02:12;13.60;41.60
28087;DHT22;15392;48.912;8.380;2023-04-03T14:04:47;13.60;42.00
28087;DHT22;15392;48.912;8.380;2023-04-03T14:07:16;13.60;42.30
28087;DHT22;15392;48.912;8.380;2023-04-03T14:09:43;13.60;42.40
28087;DHT22;15392;48.912;8.380;2023-04-03T14:12:26;13.70;42.50
28087;DHT22;15392;48.912;8.380;2023-04-03T14:14:57;13.70;42.20
28087;DHT22;15392;48.912;8.380;2023-04-03T14:17:26;13.70;42.60
28087;DHT22;15392;48.912;8.380;2023-04-03T14:19:54;13.70;42.40
28087;DHT22;15392;48.912;8.380;2023-04-03T14:22:24;13.70;42.50
28087;DHT22;15392;48.912;8.380;2023-04-03T14:24:52;13.70;42.20
28087;DHT22;15392;48.912;8.380;2023-04-03T14:27:24;13.70;42.40
28087;DHT22;15392;48.912;8.380;2023-04-03T14:29:59;13.80;42.10
28087;DHT22;15392;48.912;8.380;2023-04-03T14:32:26;13.80;42.30
28087;DHT22;15392;48.912;8.380;2023-04-03T14:34:53;13.80;42.20
28087;DHT22;15392;48.912;8.380;2023-04-03T14:37:22;13.80;42.10
28087;DHT22;15392;48.912;8.380;2023-04-03T14:39:50;13.80;41.90
28087;DHT22;15392;48.912;8.380;2023-04-03T14:42:19;13.80;41.50
28087;DHT22;15392;48.912;8.380;2023-04-03T14:44:48;13.80;41.70
28087;DHT22;15392;48.912;8.380;2023-04-03T14:47:22;13.80;41.90
28087;DHT22;15392;48.912;8.380;2023-04-03T14:49:53;13.80;41.80
28087;DHT22;15392;48.912;8.380;2023-04-03T14:52:25;13.80;42.00
28087;DHT22;15392;48.912;8.380;2023-04-03T14:54:56;13.80;41.60
28087;DHT22;15392;48.912;8.380;2023-04-03T14:57:24;13.80;42.00
28087;DHT22;15392;48.912;8.380;2023-04-03T14:59:51;13.80;41.90
28087;DHT22;15392;48.912;8.380;2023-04-03T15:02:28;13.80;42.00
28087;DHT22;15392;48.912;8.380;2023-04-03T15:04:59;13.80;41.30
28087;DHT22;15392;48.912;8.380;2023-04-03T15:07:30;13.80;42.00
28087;DHT22;15392;48.912;8.380;2023-04-03T15:10:00;13.80;41.90
28087;DHT22;15392;48.912;8.380;2023-04-03T15:12:28;13.80;41.50
28087;DHT22;15392;48.912;8.380;2023-04-03T15:14:53;13.80;42.20
28087;DHT22;15392;48.912;8.380;2023-04-03T15:17:21;13.90;42.00
28087;DHT22;15392;48.912;8.380;2023-04-03T15:19:48;13.80;41.80
28087;DHT22;15392;48.912;8.380;2023-04-03T15:22:18;13.90;42.00
28087;DHT22;15392;48.912;8.380;2023-04-03T15:24:45;13.90;41.50
28087;DHT22;15392;48.912;8.380;2023-04-03T15:27:12;13.90;41.80
28087;DHT22;15392;48.912;8.380;2023-04-03T15:29:40;13.80;41.50
28087;DHT22;15392;48.912;8.380;2023-04-03T15:32:07;13.80;41.50
28087;DHT22;15392;48.912;8.380;2023-04-03T15:34:35;13.80;41.70
28087;DHT22;15392;48.912;8.380;2023-04-03T15:37:01;13.80;41.70
28087;DHT22;15392;48.912;8.380;2023-04-03T15:39:27;13.90;41.90
28087;DHT22;15392;48.912;8.380;2023-04-03T15:41:53;13.90;41.70
28087;DHT22;15392;48.912;8.380;2023-04-03T15:44:22;13.90;41.60
28087;DHT22;15392;48.912;8.380;2023-04-03T15:46:48;13.90;41.40
28087;DHT22;15392;48.912;8.380;2023-04-03T15:49:17;13.90;41.40
28087;DHT22;15392;48.912;8.380;2023-04-03T15:51:44;13.90;41.40
28087;DHT22;15392;48.912;8.380;2023-04-03T15:54:10;13.90;41.30
28087;DHT22;15392;48.912;8.380;2023-04-03T15:56:36;13.90;41.20
28087;DHT22;15392;48.912;8.380;2023-04-03T15:59:02;13.90;41.20
28087;DHT22;15392;48.912;8.380;2023-04-03T16:01:29;13.90;41.20
28087;DHT22;15392;48.912;8.380;2023-04-03T16:03:55;13.90;41.20
28087;DHT22;15392;48.912;8.380;2023-04-03T16:06:21;13.90;41.30
28087;DHT22;15392;48.912;8.380;2023-04-03T16:08:47;13.90;41.30
28087;DHT22;15392;48.912;8.380;2023-04-03T16:11:14;13.90;41.20
28087;DHT22;15392;48.912;8.380;2023-04-03T16:13:40;13.90;40.90
28087;DHT22;15392;48.912;8.380;2023-04-03T16:16:06;13.90;41.00
28087;DHT22;15392;48.912;8.380;2023-04-03T16:18:34;13.90;40.80
28087;DHT22;15392;48.912;8.380;2023-04-03T16:21:00;13.90;40.80
28087;DHT22;15392;48.912;8.380;2023-04-03T16:23:26;13.90;40.80
28087;DHT22;15392;48.912;8.380;2023-04-03T16:25:52;13.90;40.80
28087;DHT22;15392;48.912;8.380;2023-04-03T16:28:19;13.90;40.70
28087;DHT22;15392;48.912;8.380;2023-04-03T16:30:45;13.90;40.60
28087;DHT22;15392;48.912;8.380;2023-04-03T16:33:13;13.80;40.60
28087;DHT22;15392;48.912;8.380;2023-04-03T16:35:39;13.90;40.70
28087;DHT22;15392;48.912;8.380;2023-04-03T16:38:07;13.80;40.70
28087;DHT22;15392;48.912;8.380;2023-04-03T16:40:33;13.80;40.70
28087;DHT22;15392;48.912;8.380;2023-04-03T16:43:00;13.80;40.80
28087;DHT22;15392;48.912;8.380;2023-04-03T16:45:27;13.80;40.80
28087;DHT22;15392;48.912;8.380;2023-04-03T16:47:53;13.90;40.90
28087;DHT22;15392;48.912;8.380;2023-04-03T16:50:19;13.80;40.80
28087;DHT22;15392;48.912;8.380;2023-04-03T16:52:47;13.80;40.80
28087;DHT22;15392;48.912;8.380;2023-04-03T16:55:13;13.80;40.50
28087;DHT22;15392;48.912;8.380;2023-04-03T16:57:39;13.90;40.80
28087;DHT22;15392;48.912;8.380;2023-04-03T17:00:05;13.80;40.80
28087;DHT22;15392;48.912;8.380;2023-04-03T17:02:32;13.90;40.80
28087;DHT22;15392;48.912;8.380;2023-04-03T17:04:58;13.90;40.90
28087;DHT22;15392;48.912;8.380;2023-04-03T17:07:25;13.90;40.80
28087;DHT22;15392;48.912;8.380;2023-04-03T17:09:52;13.90;40.80
28087;DHT22;15392;48.912;8.380;2023-04-03T17:12:19;13.90;40.80
28087;DHT22;15392;48.912;8.380;2023-04-03T17:14:46;13.90;40.80
28087;DHT22;15392;48.912;8.380;2023-04-03T17:17:13;13.90;40.80
28087;DHT22;15392;48.912;8.380;2023-04-03T17:19:40;13.90;40.70
28087;DHT22;15392;48.912;8.380;2023-04-03T17:22:08;13.80;40.70
28087;DHT22;15392;48.912;8.380;2023-04-03T17:24:35;13.90;40.60
28087;DHT22;15392;48.912;8.380;2023-04-03T17:27:02;13.80;40.60
28087;DHT22;15392;48.912;8.380;2023-04-03T17:29:28;13.80;40.50
28087;DHT22;15392;48.912;8.380;2023-04-03T17:31:54;13.80;40.50